Time;durP1;ratioP1;P1;durP2;ratioP2;P2;SDS_P1;SDS_P2;PMS_P1;PMS_P2;Temp;Humidity;BMP_temperature;BMP_pressure;BME280_temperature;BME280_humidity;BME280_pressure;Samples;Min_cycle;Max_cycle;Signal;HPM_P1;HPM_P2
2023/03/04 00:02:16;;;;;;;13.30;2.22;;;6.50;99.90;;;;;;4971003;28;20199;-72
2023/03/04 00:04:41;;;;;;;10.40;1.75;;;6.60;99.90;;;;;;4968274;28;20031;-72
2023/03/04 00:07:07;;;;;;;11.35;1.75;;;6.50;99.90;;;;;;4972330;28;20042;-72
2023/03/04 00:09:33;;;;;;;14.10;1.35;;;6.70;99.90;;;;;;4969016;28;20038;-72
2023/03/04 00:11:58;;;;;;;11.02;1.48;;;6.60;99.90;;;;;;4969866;28;20031;-72
2023/03/04 00:14:24;;;;;;;8.10;1.25;;;6.60;99.90;;;;;;4968182;28;20046;-73
2023/03/04 00:16:49;;;;;;;11.98;1.67;;;6.60;99.90;;;;;;4967972;28;20547;-72
2023/03/04 00:19:15;;;;;;;13.48;1.85;;;6.50;99.90;;;;;;4968737;28;20078;-72
2023/03/04 00:21:40;;;;;;;9.57;1.23;;;6.50;99.90;;;;;;4969165;28;20051;-72
2023/03/04 00:24:06;;;;;;;9.68;1.98;;;6.50;99.90;;;;;;4971899;28;20027;-72
2023/03/04 00:26:32;;;;;;;12.57;1.70;;;6.50;99.90;;;;;;4965773;28;20050;-72
2023/03/04 00:28:57;;;;;;;12.75;2.05;;;6.50;99.90;;;;;;4969268;28;20031;-72
2023/03/04 00:31:26;;;;;;;10.88;2.53;;;6.50;99.90;;;;;;4967651;28;20035;-72
2023/03/04 00:33:51;;;;;;;14.98;1.38;;;6.50;99.90;;;;;;4967614;28;20102;-71
2023/03/04 00:36:17;;;;;;;5.80;0.77;;;6.50;99.90;;;;;;4968423;28;20447;-72
2023/03/04 00:38:43;;;;;;;5.93;1.15;;;6.50;99.90;;;;;;4967751;28;20042;-72
2023/03/04 00:41:08;;;;;;;13.07;1.48;;;6.50;99.90;;;;;;4970281;28;20038;-71
2023/03/04 00:43:34;;;;;;;9.00;1.15;;;6.50;99.90;;;;;;4966918;28;20535;-72
2023/03/04 00:45:59;;;;;;;6.38;1.48;;;6.50;99.90;;;;;;4968053;28;20034;-72
2023/03/04 00:48:25;;;;;;;10.50;2.20;;;6.50;99.90;;;;;;4966033;28;20086;-72
2023/03/04 00:50:52;;;;;;;7.15;1.55;;;6.50;99.90;;;;;;4967145;28;20138;-72
2023/03/04 00:53:18;;;;;;;16.70;2.47;;;6.50;99.90;;;;;;4965836;28;20519;-72
2023/03/04 00:55:44;;;;;;;14.32;1.80;;;6.50;99.90;;;;;;4967425;28;20045;-72
2023/03/04 00:58:09;;;;;;;7.05;1.40;;;6.50;99.90;;;;;;4967535;28;20027;-72
2023/03/04 01:00:38;;;;;;;11.30;1.85;;;6.50;99.90;;;;;;4969044;28;20096;-73
2023/03/04 01:03:04;;;;;;;6.57;1.85;;;6.50;99.90;;;;;;4968667;28;20122;-71
2023/03/04 01:05:30;;;;;;;10.77;1.10;;;6.40;99.90;;;;;;4966859;28;20150;-72
2023/03/04 01:07:56;;;;;;;5.47;0.80;;;6.40;99.90;;;;;;4984271;28;20475;-72
2023/03/04 01:10:22;;;;;;;7.63;0.80;;;6.40;99.90;;;;;;4965510;28;20058;-72
2023/03/04 01:12:47;;;;;;;7.05;1.35;;;6.40;99.90;;;;;;4965495;28;20391;-72
2023/03/04 01:15:13;;;;;;;8.20;0.98;;;6.50;99.90;;;;;;4970445;28;20054;-71
2023/03/04 01:17:39;;;;;;;12.68;1.52;;;6.50;99.90;;;;;;4967356;28;20027;-72
2023/03/04 01:20:06;;;;;;;12.30;1.13;;;6.40;99.90;;;;;;4969475;28;20051;-71
2023/03/04 01:22:32;;;;;;;11.35;2.08;;;6.40;99.90;;;;;;4973291;28;20050;-73
2023/03/04 01:24:58;;;;;;;10.80;1.10;;;6.40;99.90;;;;;;4967461;28;20440;-72
2023/03/04 01:27:23;;;;;;;11.57;1.77;;;6.40;99.90;;;;;;4966844;28;20050;-72
2023/03/04 01:29:49;;;;;;;12.60;1.20;;;6.40;99.90;;;;;;4967074;28;20089;-72
2023/03/04 01:32:15;;;;;;;7.57;1.50;;;6.40;99.90;;;;;;4965941;28;20031;-72
2023/03/04 01:34:40;;;;;;;9.00;1.80;;;6.40;99.90;;;;;;4966686;28;20435;-73
2023/03/04 01:37:06;;;;;;;7.35;1.08;;;6.40;99.90;;;;;;4968590;28;20058;-72
2023/03/04 01:39:32;;;;;;;11.07;1.30;;;6.40;99.90;;;;;;4967610;28;20456;-72
2023/03/04 01:41:58;;;;;;;6.68;1.05;;;6.40;99.90;;;;;;4968929;28;20035;-72
2023/03/04 01:44:23;;;;;;;8.57;1.95;;;6.40;99.90;;;;;;4966770;28;20094;-72
2023/03/04 01:46:52;;;;;;;12.18;1.65;;;6.40;99.90;;;;;;4966552;28;20035;-72
2023/03/04 01:49:18;;;;;;;6.97;1.15;;;6.50;99.90;;;;;;4971523;28;20205;-72
2023/03/04 01:51:49;;;;;;;6.50;1.30;;;6.50;99.90;;;;;;4970476;28;20118;-72
2023/03/04 01:54:15;;;;;;;11.02;0.90;;;6.40;99.90;;;;;;4976705;28;20186;-73
2023/03/04 01:56:44;;;;;;;11.45;1.30;;;6.40;99.90;;;;;;4969190;28;20039;-73
2023/03/04 01:59:11;;;;;;;9.68;2.08;;;6.40;99.90;;;;;;4974564;28;20058;-72
2023/03/04 02:01:39;;;;;;;11.05;0.73;;;6.40;99.90;;;;;;4970035;28;20037;-72
2023/03/04 02:04:06;;;;;;;12.85;2.90;;;6.40;99.90;;;;;;4971151;28;20093;-73
2023/03/04 02:06:33;;;;;;;6.82;0.73;;;6.40;99.90;;;;;;4971156;28;20159;-72
2023/03/04 02:08:59;;;;;;;10.27;1.40;;;6.40;99.90;;;;;;4970156;28;20035;-72
2023/03/04 02:11:27;;;;;;;11.80;1.65;;;6.40;99.90;;;;;;4970106;28;20038;-72
2023/03/04 02:13:53;;;;;;;9.07;1.63;;;6.40;99.90;;;;;;4969733;28;20100;-73
2023/03/04 02:16:19;;;;;;;9.73;0.95;;;6.40;99.90;;;;;;4970059;28;20126;-72
2023/03/04 02:18:44;;;;;;;11.55;1.00;;;6.30;99.90;;;;;;4970295;28;20488;-72
2023/03/04 02:21:23;;;;;;;7.88;0.85;;;6.30;99.90;;;;;;4970123;28;20404;-73
2023/03/04 02:24:09;;;;;;;8.77;1.05;;;6.40;99.90;;;;;;4967266;28;20098;-72
2023/03/04 02:26:35;;;;;;;7.75;0.90;;;6.40;99.90;;;;;;4986016;28;20061;-72
2023/03/04 02:29:02;;;;;;;5.32;1.33;;;6.40;99.90;;;;;;4970172;28;20035;-72
2023/03/04 02:31:34;;;;;;;8.95;1.17;;;6.40;99.90;;;;;;4969617;28;20444;-72
2023/03/04 02:34:03;;;;;;;9.45;1.70;;;6.40;99.90;;;;;;4969619;28;20073;-72
2023/03/04 02:36:30;;;;;;;7.93;1.77;;;6.40;99.90;;;;;;4970403;28;20082;-72
2023/03/04 02:39:02;;;;;;;10.20;1.95;;;6.50;99.90;;;;;;4983574;28;20403;-72
2023/03/04 02:41:29;;;;;;;9.75;1.55;;;6.40;99.90;;;;;;4989348;28;20096;-72
2023/03/04 02:43:55;;;;;;;7.28;0.80;;;6.40;99.90;;;;;;4971822;28;20426;-73
2023/03/04 02:46:22;;;;;;;12.07;0.90;;;6.40;99.90;;;;;;4988570;28;20085;-73
2023/03/04 02:48:49;;;;;;;10.52;0.85;;;6.40;99.90;;;;;;4989065;28;20458;-72
2023/03/04 02:51:14;;;;;;;6.35;1.27;;;6.30;99.90;;;;;;4989539;28;20035;-73
2023/03/04 02:53:40;;;;;;;9.00;0.90;;;6.40;99.90;;;;;;4989293;28;20088;-72
2023/03/04 02:56:06;;;;;;;5.40;1.25;;;6.30;99.90;;;;;;4971146;28;20698;-72
2023/03/04 02:58:32;;;;;;;7.43;1.63;;;6.30;99.90;;;;;;4987084;28;20045;-72
2023/03/04 03:00:57;;;;;;;11.20;1.35;;;6.30;99.90;;;;;;4989148;28;20030;-72
2023/03/04 03:03:23;;;;;;;10.98;0.90;;;6.30;99.90;;;;;;4970774;28;20034;-73
2023/03/04 03:05:49;;;;;;;8.68;1.20;;;6.30;99.90;;;;;;4988606;28;20022;-72
2023/03/04 03:08:14;;;;;;;7.70;0.77;;;6.30;99.90;;;;;;4988150;28;20042;-72
2023/03/04 03:10:40;;;;;;;3.40;0.98;;;6.30;99.90;;;;;;4988122;28;20474;-73
2023/03/04 03:13:06;;;;;;;13.43;2.45;;;6.30;99.90;;;;;;4988390;28;20030;-73
2023/03/04 03:15:31;;;;;;;7.38;1.33;;;6.30;99.90;;;;;;4970191;28;20164;-72
2023/03/04 03:17:57;;;;;;;6.18;0.68;;;6.20;99.90;;;;;;4971570;28;20042;-73
2023/03/04 03:20:22;;;;;;;9.32;1.13;;;6.30;99.90;;;;;;4990422;28;20040;-72
2023/03/04 03:22:48;;;;;;;8.73;0.88;;;6.30;99.90;;;;;;4990103;28;20034;-73
2023/03/04 03:25:15;;;;;;;6.90;1.10;;;6.30;99.90;;;;;;4970964;28;20514;-73
2023/03/04 03:27:40;;;;;;;11.60;1.75;;;6.30;99.90;;;;;;4988019;28;20042;-72
2023/03/04 03:30:08;;;;;;;4.82;1.05;;;6.20;99.90;;;;;;4988575;28;20438;-72
2023/03/04 03:32:33;;;;;;;6.43;1.67;;;6.20;99.90;;;;;;4987044;28;20050;-72
2023/03/04 03:35:00;;;;;;;7.85;1.15;;;6.30;99.90;;;;;;4988900;28;20121;-72
2023/03/04 03:37:25;;;;;;;8.73;1.60;;;6.30;99.90;;;;;;4987939;28;20038;-72
2023/03/04 03:39:51;;;;;;;12.65;1.48;;;6.30;99.90;;;;;;4968531;28;20034;-72
2023/03/04 03:42:16;;;;;;;10.52;1.90;;;6.30;99.90;;;;;;4971863;28;20035;-73
2023/03/04 03:44:42;;;;;;;9.48;0.75;;;6.30;99.90;;;;;;4983513;28;20500;-73
2023/03/04 03:47:08;;;;;;;7.22;1.67;;;6.30;99.90;;;;;;4969185;28;20030;-72
2023/03/04 03:49:33;;;;;;;8.27;0.63;;;6.40;99.90;;;;;;4967707;28;20057;-72
2023/03/04 03:51:59;;;;;;;5.13;1.00;;;6.40;99.90;;;;;;4951265;28;20023;-73
2023/03/04 03:54:24;;;;;;;5.53;0.60;;;6.40;99.90;;;;;;4968342;28;20039;-72
2023/03/04 03:56:50;;;;;;;8.60;0.82;;;6.30;99.90;;;;;;4950849;28;20051;-72
2023/03/04 03:59:15;;;;;;;6.40;0.55;;;6.40;99.90;;;;;;4967934;28;20041;-72
2023/03/04 04:01:41;;;;;;;10.50;1.17;;;6.30;99.90;;;;;;4968278;28;20031;-72
2023/03/04 04:04:07;;;;;;;16.05;1.65;;;6.40;99.90;;;;;;4972130;28;20026;-73
2023/03/04 04:06:32;;;;;;;6.75;0.60;;;6.40;99.90;;;;;;4967929;28;20047;-73
2023/03/04 04:08:58;;;;;;;12.52;0.73;;;6.30;99.90;;;;;;4967890;28;20039;-72
2023/03/04 04:11:23;;;;;;;5.90;0.70;;;6.20;99.90;;;;;;4967832;28;20047;-73
2023/03/04 04:13:49;;;;;;;3.30;0.68;;;6.30;99.90;;;;;;4965036;28;20130;-73
2023/03/04 04:16:14;;;;;;;5.82;1.25;;;6.30;99.90;;;;;;4971354;28;20038;-73
2023/03/04 04:18:40;;;;;;;17.98;1.17;;;6.30;99.90;;;;;;4970790;28;20114;-73
2023/03/04 04:21:06;;;;;;;15.73;0.93;;;6.30;99.90;;;;;;4974494;28;20454;-72
2023/03/04 04:23:31;;;;;;;5.85;0.60;;;6.30;99.90;;;;;;4967172;28;20038;-73
2023/03/04 04:25:57;;;;;;;8.65;1.17;;;6.20;99.90;;;;;;4951261;28;20030;-73
2023/03/04 04:28:24;;;;;;;5.45;1.05;;;6.30;99.90;;;;;;4950165;28;20047;-72
2023/03/04 04:30:50;;;;;;;6.35;1.02;;;6.30;99.90;;;;;;4950217;28;20683;-72
2023/03/04 04:33:15;;;;;;;2.75;0.50;;;6.20;99.90;;;;;;4970214;28;20415;-72
2023/03/04 04:35:41;;;;;;;5.95;1.00;;;6.30;99.90;;;;;;4970278;28;20034;-72
2023/03/04 04:38:07;;;;;;;3.72;0.38;;;6.20;99.90;;;;;;4970531;28;20039;-72
2023/03/04 04:40:33;;;;;;;4.75;0.88;;;6.20;99.90;;;;;;4967009;28;20121;-73
2023/03/04 04:42:59;;;;;;;2.70;0.57;;;6.20;99.90;;;;;;4970919;28;20118;-73
2023/03/04 04:45:24;;;;;;;3.70;1.00;;;6.20;99.90;;;;;;4969027;28;20030;-72
2023/03/04 04:47:54;;;;;;;6.63;1.38;;;6.30;99.90;;;;;;4971450;28;20394;-72
2023/03/04 04:50:20;;;;;;;5.13;0.55;;;6.30;99.90;;;;;;4969279;28;20046;-72
2023/03/04 04:52:45;;;;;;;8.73;1.88;;;6.30;99.90;;;;;;4970835;28;20042;-72
2023/03/04 04:55:11;;;;;;;7.50;1.35;;;6.30;99.90;;;;;;4967797;28;20396;-72
2023/03/04 04:57:37;;;;;;;9.45;1.80;;;6.30;99.90;;;;;;4997988;28;20499;-73
2023/03/04 05:00:04;;;;;;;6.32;0.60;;;6.30;99.90;;;;;;4967442;28;20030;-72
2023/03/04 05:02:30;;;;;;;11.65;1.95;;;6.30;99.90;;;;;;4967372;28;20039;-72
2023/03/04 05:04:56;;;;;;;8.93;0.68;;;6.30;99.90;;;;;;5000712;28;20634;-72
2023/03/04 05:07:21;;;;;;;7.60;0.77;;;6.30;99.90;;;;;;4965437;28;20133;-73
2023/03/04 05:09:47;;;;;;;4.63;0.43;;;6.30;99.90;;;;;;4970306;28;20092;-72
2023/03/04 05:12:12;;;;;;;5.75;0.43;;;6.30;99.90;;;;;;4965465;28;20039;-73
2023/03/04 05:14:38;;;;;;;8.00;1.55;;;6.20;99.90;;;;;;4967029;28;20438;-72
2023/03/04 05:17:04;;;;;;;4.65;0.70;;;6.30;99.90;;;;;;4967468;28;20097;-73
2023/03/04 05:19:29;;;;;;;7.43;0.93;;;6.10;99.90;;;;;;4969615;28;20051;-73
2023/03/04 05:21:55;;;;;;;4.20;0.45;;;6.20;99.90;;;;;;4970735;28;20054;-72
2023/03/04 05:24:20;;;;;;;2.85;0.80;;;6.20;99.90;;;;;;4974253;28;20126;-72
2023/03/04 05:26:46;;;;;;;3.83;1.10;;;6.20;99.90;;;;;;4976557;28;20057;-72
2023/03/04 05:29:11;;;;;;;4.78;1.65;;;6.20;99.90;;;;;;4981578;28;20447;-72
2023/03/04 05:31:37;;;;;;;10.18;1.30;;;6.20;99.90;;;;;;4967885;28;20039;-73
2023/03/04 05:34:03;;;;;;;3.60;0.70;;;6.20;99.90;;;;;;4973944;28;20038;-71
2023/03/04 05:36:28;;;;;;;6.45;1.30;;;6.20;99.90;;;;;;4972565;28;20035;-72
2023/03/04 05:38:54;;;;;;;5.93;1.02;;;6.20;99.90;;;;;;4974007;28;20097;-73
2023/03/04 05:41:21;;;;;;;6.32;0.73;;;6.20;99.90;;;;;;4972855;28;20047;-72
2023/03/04 05:43:48;;;;;;;3.63;0.90;;;6.20;99.90;;;;;;4972082;28;20621;-72
2023/03/04 05:46:15;;;;;;;10.23;1.83;;;6.10;99.90;;;;;;4971453;28;20054;-72
2023/03/04 05:48:41;;;;;;;8.93;1.50;;;6.20;99.90;;;;;;4971370;28;20027;-72
2023/03/04 05:51:07;;;;;;;10.73;0.65;;;6.10;99.90;;;;;;4973486;28;20396;-72
2023/03/04 05:53:35;;;;;;;8.52;1.20;;;6.10;99.90;;;;;;4972450;28;20034;-73
2023/03/04 05:56:13;;;;;;;10.60;1.10;;;6.10;99.90;;;;;;4979740;28;20043;-72
2023/03/04 05:58:38;;;;;;;7.60;0.95;;;6.10;99.90;;;;;;4982649;28;20053;-73
2023/03/04 06:01:05;;;;;;;7.07;1.00;;;6.00;99.90;;;;;;4975298;28;20794;-72
2023/03/04 06:03:30;;;;;;;8.38;1.15;;;5.90;99.90;;;;;;4973274;28;20035;-72
2023/03/04 06:05:57;;;;;;;2.40;0.43;;;5.80;99.90;;;;;;4972229;28;20027;-73
2023/03/04 06:08:23;;;;;;;4.07;0.70;;;5.80;99.90;;;;;;4974429;28;20042;-74
2023/03/04 06:10:52;;;;;;;21.00;1.92;;;5.70;99.90;;;;;;4977152;28;20054;-73
2023/03/04 06:13:18;;;;;;;6.78;1.10;;;5.60;99.90;;;;;;4973568;28;20035;-73
2023/03/04 06:15:43;;;;;;;8.93;0.90;;;5.60;99.90;;;;;;4973369;28;20041;-72
2023/03/04 06:18:09;;;;;;;5.75;0.90;;;5.60;99.90;;;;;;4976128;28;20121;-72
2023/03/04 06:20:35;;;;;;;7.07;1.00;;;5.60;99.90;;;;;;4971314;28;20035;-72
2023/03/04 06:23:00;;;;;;;6.32;0.80;;;5.60;99.90;;;;;;4973450;28;20046;-72
2023/03/04 06:25:26;;;;;;;6.18;1.23;;;5.50;99.90;;;;;;4972661;28;20495;-73
2023/03/04 06:27:52;;;;;;;3.42;0.40;;;5.60;99.90;;;;;;4973068;28;20488;-72
2023/03/04 06:30:18;;;;;;;5.18;1.67;;;5.60;99.90;;;;;;4972927;28;20070;-73
2023/03/04 06:32:45;;;;;;;2.58;0.73;;;5.60;99.90;;;;;;4970283;28;20430;-71
2023/03/04 06:35:11;;;;;;;9.35;1.08;;;5.60;99.90;;;;;;4970693;28;20039;-72
2023/03/04 06:37:37;;;;;;;5.15;0.93;;;5.60;99.90;;;;;;4971316;28;20034;-73
2023/03/04 06:40:03;;;;;;;12.40;1.17;;;5.70;99.90;;;;;;4968507;28;20023;-72
2023/03/04 06:42:29;;;;;;;4.45;0.70;;;5.60;99.90;;;;;;4969662;28;20046;-73
2023/03/04 06:44:55;;;;;;;6.88;1.33;;;5.70;99.90;;;;;;4968558;28;20041;-72
2023/03/04 06:47:21;;;;;;;11.07;1.63;;;5.70;99.90;;;;;;4969406;28;20026;-72
2023/03/04 06:49:46;;;;;;;5.82;1.00;;;5.70;99.90;;;;;;4969534;28;20118;-71
2023/03/04 06:52:12;;;;;;;8.13;0.65;;;5.70;99.90;;;;;;4968486;28;20407;-71
2023/03/04 06:54:38;;;;;;;7.35;1.60;;;5.80;99.90;;;;;;4968789;28;20066;-72
2023/03/04 06:57:04;;;;;;;6.82;0.93;;;5.80;99.90;;;;;;4977092;28;20035;-72
2023/03/04 06:59:30;;;;;;;18.60;2.20;;;5.80;99.90;;;;;;4972363;28;20495;-72
2023/03/04 07:01:56;;;;;;;2.20;0.50;;;5.80;99.90;;;;;;4968179;28;20062;-72
2023/03/04 07:04:22;;;;;;;8.13;0.98;;;5.80;99.90;;;;;;4970442;28;20134;-72
2023/03/04 07:06:48;;;;;;;6.90;1.27;;;5.80;99.90;;;;;;4969207;28;20538;-72
2023/03/04 07:09:13;;;;;;;6.43;0.85;;;5.90;99.90;;;;;;4969653;28;20041;-73
2023/03/04 07:11:39;;;;;;;3.15;0.70;;;5.90;99.90;;;;;;4968776;28;20597;-73
2023/03/04 07:14:04;;;;;;;2.75;0.30;;;5.90;99.90;;;;;;4970440;28;20137;-72
2023/03/04 07:16:30;;;;;;;5.28;0.77;;;6.00;99.90;;;;;;5008504;28;20030;-72
2023/03/04 07:18:56;;;;;;;3.97;0.60;;;6.00;99.90;;;;;;4969006;28;20094;-72
2023/03/04 07:21:21;;;;;;;4.63;0.80;;;6.00;99.90;;;;;;4967720;28;20041;-72
2023/03/04 07:23:47;;;;;;;11.63;0.75;;;6.00;99.90;;;;;;4973543;28;20046;-73
2023/03/04 07:26:13;;;;;;;7.72;0.60;;;6.00;99.90;;;;;;4969546;28;20022;-73
2023/03/04 07:28:41;;;;;;;12.30;0.70;;;6.00;99.90;;;;;;4968191;28;20059;-73
2023/03/04 07:31:19;;;;;;;10.05;1.10;;;6.10;99.90;;;;;;4969647;28;20031;-72
2023/03/04 07:33:45;;;;;;;2.22;0.55;;;6.20;99.90;;;;;;4970249;28;20085;-73
2023/03/04 07:36:13;;;;;;;4.20;0.80;;;6.20;99.90;;;;;;4968904;28;20035;-72
2023/03/04 07:38:42;;;;;;;3.50;0.60;;;6.20;99.90;;;;;;4980694;28;20040;-73
2023/03/04 07:41:07;;;;;;;3.90;0.35;;;6.30;99.90;;;;;;4977612;28;20054;-73
2023/03/04 07:43:33;;;;;;;2.03;0.50;;;6.30;99.90;;;;;;4974983;28;20057;-73
2023/03/04 07:46:00;;;;;;;7.97;1.05;;;6.30;99.90;;;;;;4968506;28;20042;-73
2023/03/04 07:48:26;;;;;;;4.05;0.90;;;6.40;99.90;;;;;;4966737;28;20062;-73
2023/03/04 07:51:06;;;;;;;2.28;0.60;;;6.50;99.90;;;;;;4967257;28;20118;-72
2023/03/04 07:53:33;;;;;;;5.57;0.60;;;6.50;99.90;;;;;;4995847;28;20081;-72
2023/03/04 07:55:59;;;;;;;5.78;0.60;;;6.50;99.90;;;;;;4965956;28;20062;-73
2023/03/04 07:58:25;;;;;;;2.38;0.50;;;6.70;99.90;;;;;;4968803;28;20078;-72
2023/03/04 08:00:50;;;;;;;6.68;0.50;;;6.80;99.90;;;;;;4965238;28;20115;-73
2023/03/04 08:03:16;;;;;;;4.97;0.60;;;6.80;99.90;;;;;;4964059;28;20133;-72
2023/03/04 08:05:42;;;;;;;7.70;0.70;;;7.00;99.90;;;;;;4968544;28;20861;-72
2023/03/04 08:08:11;;;;;;;4.00;1.05;;;7.00;99.90;;;;;;4967227;28;20047;-72
2023/03/04 08:10:38;;;;;;;3.85;0.50;;;7.10;99.90;;;;;;4964947;28;20035;-72
2023/03/04 08:13:04;;;;;;;5.43;1.13;;;7.10;99.90;;;;;;4965528;28;20043;-73
2023/03/04 08:15:31;;;;;;;4.28;1.15;;;7.20;99.90;;;;;;4965768;28;20063;-72
2023/03/04 08:17:57;;;;;;;4.18;0.65;;;7.30;99.90;;;;;;4966437;28;20031;-73
2023/03/04 08:20:23;;;;;;;5.32;0.63;;;7.40;99.90;;;;;;4965397;28;20051;-72
2023/03/04 08:22:49;;;;;;;5.07;0.90;;;7.30;99.90;;;;;;4964159;28;20035;-73
2023/03/04 08:25:15;;;;;;;1.33;0.43;;;7.30;99.90;;;;;;4964287;28;20082;-73
2023/03/04 08:27:41;;;;;;;3.60;0.75;;;7.30;99.90;;;;;;4967097;28;20515;-73
2023/03/04 08:30:07;;;;;;;1.58;0.30;;;7.30;99.90;;;;;;4967058;28;20113;-74
2023/03/04 08:32:33;;;;;;;2.97;0.50;;;7.40;99.90;;;;;;4964937;28;21421;-72
2023/03/04 08:35:01;;;;;;;4.95;0.32;;;7.30;99.90;;;;;;4965876;28;20046;-73
2023/03/04 08:37:29;;;;;;;4.82;0.35;;;7.40;99.90;;;;;;4965860;28;21368;-72
2023/03/04 08:39:55;;;;;;;3.78;0.50;;;7.40;99.90;;;;;;4967469;28;20484;-72
2023/03/04 08:42:20;;;;;;;2.90;0.47;;;7.60;99.90;;;;;;4967420;28;20069;-73
2023/03/04 08:44:46;;;;;;;4.97;0.25;;;7.70;99.90;;;;;;4965129;28;20065;-73
2023/03/04 08:47:11;;;;;;;1.10;0.25;;;7.90;99.90;;;;;;4964340;28;20121;-72
2023/03/04 08:49:37;;;;;;;1.48;0.47;;;7.90;99.90;;;;;;4966099;28;20082;-71
2023/03/04 08:52:03;;;;;;;3.47;0.65;;;7.90;99.90;;;;;;4967011;28;20090;-73
2023/03/04 08:54:29;;;;;;;2.20;0.28;;;8.00;99.90;;;;;;4966509;28;20031;-73
2023/03/04 08:56:57;;;;;;;2.08;0.20;;;8.10;99.90;;;;;;4967830;28;20031;-74
2023/03/04 08:59:23;;;;;;;3.10;0.40;;;8.20;99.90;;;;;;4966410;28;20509;-72
2023/03/04 09:01:49;;;;;;;2.45;0.82;;;8.30;99.90;;;;;;4969726;28;20022;-74
2023/03/04 09:04:14;;;;;;;4.30;1.35;;;8.20;99.90;;;;;;4965878;28;20089;-73
2023/03/04 09:06:40;;;;;;;2.20;0.73;;;8.10;99.90;;;;;;4968087;28;20031;-73
2023/03/04 09:09:05;;;;;;;1.58;0.50;;;8.20;99.90;;;;;;4967642;28;20023;-72
2023/03/04 09:11:31;;;;;;;1.75;0.20;;;8.30;99.90;;;;;;4965970;28;20042;-73
2023/03/04 09:13:57;;;;;;;2.67;0.40;;;8.50;99.90;;;;;;4969066;28;20443;-72
2023/03/04 09:16:22;;;;;;;2.28;0.57;;;8.50;99.90;;;;;;4967962;28;20046;-73
2023/03/04 09:18:48;;;;;;;0.77;0.17;;;8.50;99.90;;;;;;4965730;28;20023;-75
2023/03/04 09:21:14;;;;;;;2.65;0.22;;;8.40;99.90;;;;;;4963867;28;20413;-74
2023/03/04 09:23:40;;;;;;;2.72;0.85;;;8.50;99.90;;;;;;4965286;28;20070;-72
2023/03/04 09:26:14;;;;;;;3.63;0.35;;;8.50;99.90;;;;;;4967794;28;20114;-74
2023/03/04 09:28:40;;;;;;;0.60;0.30;;;8.30;99.90;;;;;;4967208;28;20047;-72
2023/03/04 09:31:13;;;;;;;5.72;0.30;;;8.20;99.90;;;;;;4966749;28;20530;-73
2023/03/04 09:33:40;;;;;;;3.53;0.32;;;8.10;99.90;;;;;;4966731;28;20046;-73
2023/03/04 09:36:07;;;;;;;0.55;0.40;;;8.10;99.90;;;;;;4967547;28;20101;-73
2023/03/04 09:38:32;;;;;;;1.15;0.30;;;8.00;99.90;;;;;;4974120;28;20103;-74
2023/03/04 09:41:03;;;;;;;2.00;0.30;;;8.00;99.90;;;;;;4975287;28;20055;-72
2023/03/04 09:43:30;;;;;;;2.67;0.70;;;8.00;99.90;;;;;;4975601;28;20418;-75
2023/03/04 09:46:00;;;;;;;2.63;0.40;;;8.00;99.90;;;;;;4983498;28;20058;-74
2023/03/04 09:48:28;;;;;;;0.77;0.43;;;7.90;99.90;;;;;;4977536;28;20065;-73
2023/03/04 09:51:19;;;;;;;3.65;0.60;;;7.90;99.90;;;;;;4970211;28;20101;-72
2023/03/04 09:54:04;;;;;;;0.93;0.30;;;8.00;99.90;;;;;;4971151;28;20038;-72
2023/03/04 09:56:32;;;;;;;1.17;0.60;;;8.10;99.90;;;;;;4978383;28;20030;-72
2023/03/04 09:59:22;;;;;;;8.55;0.90;;;8.10;99.90;;;;;;4979137;28;20446;-72
2023/03/04 10:01:56;;;;;;;3.60;0.63;;;8.10;99.90;;;;;;4977430;28;20504;-73
2023/03/04 10:04:43;;;;;;;3.15;0.90;;;8.10;99.90;;;;;;4992585;28;20121;-72
2023/03/04 10:07:17;;;;;;;2.17;0.80;;;8.10;99.90;;;;;;4976008;28;20034;-72
2023/03/04 10:09:46;;;;;;;2.83;0.50;;;8.20;99.90;;;;;;4988224;28;20058;-73
2023/03/04 10:12:16;;;;;;;2.03;0.50;;;8.20;99.90;;;;;;4983003;28;20038;-72
2023/03/04 10:14:50;;;;;;;0.90;0.37;;;8.50;99.90;;;;;;4982731;28;20045;-73
2023/03/04 10:17:20;;;;;;;2.42;0.70;;;8.70;99.90;;;;;;4977143;28;20554;-72
2023/03/04 10:20:13;;;;;;;4.38;0.57;;;8.90;99.90;;;;;;4982981;28;20876;-72
2023/03/04 10:23:06;;;;;;;2.08;0.60;;;9.00;99.90;;;;;;4994417;28;20039;-72
2023/03/04 10:25:32;;;;;;;4.57;0.65;;;9.10;99.90;;;;;;4955141;28;20042;-74
2023/03/04 10:28:16;;;;;;;3.08;0.50;;;9.20;99.90;;;;;;4986279;28;20027;-71
2023/03/04 10:30:59;;;;;;;1.65;0.70;;;9.20;99.90;;;;;;4977448;28;20109;-72
2023/03/04 10:33:29;;;;;;;3.38;0.50;;;9.30;99.90;;;;;;4966211;28;20039;-74
2023/03/04 10:36:05;;;;;;;1.17;0.30;;;9.40;99.90;;;;;;4989330;28;20046;-72
2023/03/04 10:38:35;;;;;;;6.53;0.50;;;9.40;99.90;;;;;;4983830;28;20065;-72
2023/03/04 10:41:12;;;;;;;2.58;0.47;;;9.40;99.90;;;;;;4980139;28;20084;-72
2023/03/04 10:43:38;;;;;;;5.40;1.15;;;9.60;99.90;;;;;;5000139;28;20110;-72
2023/03/04 10:46:03;;;;;;;2.78;0.60;;;9.60;99.90;;;;;;4997594;28;20090;-72
2023/03/04 10:48:30;;;;;;;1.63;0.50;;;9.60;99.90;;;;;;4989468;28;20042;-73
2023/03/04 10:51:24;;;;;;;3.13;0.30;;;9.50;99.90;;;;;;4994918;28;20038;-72
2023/03/04 10:54:07;;;;;;;2.00;0.60;;;9.40;99.90;;;;;;5006452;28;20026;-72
2023/03/04 10:56:37;;;;;;;2.55;0.40;;;9.40;99.90;;;;;;5002494;28;20033;-76
2023/03/04 10:59:44;;;;;;;2.00;0.35;;;9.20;99.90;;;;;;4996387;28;20037;-73
2023/03/04 11:02:46;;;;;;;1.20;0.38;;;9.20;99.90;;;;;;4956266;28;20026;-72
2023/03/04 11:05:18;;;;;;;2.15;0.63;;;9.10;99.90;;;;;;4946504;28;20491;-73
2023/03/04 11:07:52;;;;;;;3.33;0.65;;;9.30;99.90;;;;;;4977648;28;20122;-74
2023/03/04 11:10:37;;;;;;;2.53;0.68;;;9.50;99.90;;;;;;4966379;28;20031;-74
2023/03/04 11:13:15;;;;;;;1.83;0.30;;;9.60;99.90;;;;;;4982260;28;20046;-74
2023/03/04 11:15:51;;;;;;;1.52;0.40;;;9.60;99.90;;;;;;4969185;28;20045;-72
2023/03/04 11:18:23;;;;;;;3.30;0.40;;;9.60;99.90;;;;;;5005118;28;20041;-73
2023/03/04 11:20:50;;;;;;;3.80;1.40;;;9.80;99.90;;;;;;4971708;28;20081;-72
2023/03/04 11:23:23;;;;;;;5.35;0.68;;;9.80;99.90;;;;;;4994968;28;20034;-72
2023/03/04 11:26:00;;;;;;;1.20;0.20;;;9.80;99.90;;;;;;4977543;28;20041;-73
2023/03/04 11:28:55;;;;;;;5.82;0.70;;;9.80;99.90;;;;;;4971053;28;20228;-72
2023/03/04 11:31:37;;;;;;;3.20;0.55;;;9.80;99.90;;;;;;4991865;28;20038;-73
2023/03/04 11:34:23;;;;;;;1.50;0.30;;;9.60;99.90;;;;;;4961483;28;20446;-72
2023/03/04 11:37:11;;;;;;;0.43;0.20;;;9.50;99.90;;;;;;4986495;28;20053;-72
2023/03/04 11:39:58;;;;;;;7.75;0.75;;;9.30;99.90;;;;;;4981805;28;20084;-73
2023/03/04 11:42:48;;;;;;;2.20;0.32;;;9.00;99.90;;;;;;4997128;28;20151;-72
2023/03/04 11:45:16;;;;;;;2.17;0.60;;;8.90;99.90;;;;;;5003525;28;20707;-72
2023/03/04 11:47:47;;;;;;;3.45;0.75;;;8.70;99.90;;;;;;4990275;28;20031;-73
2023/03/04 11:50:58;;;;;;;2.45;0.35;;;8.40;99.90;;;;;;4998856;28;20644;-72
2023/03/04 11:53:46;;;;;;;3.10;0.15;;;8.00;99.90;;;;;;4955633;28;20034;-72
2023/03/04 11:56:17;;;;;;;1.20;0.32;;;7.70;99.90;;;;;;4987741;28;20054;-72
2023/03/04 11:59:24;;;;;;;5.65;0.90;;;7.70;99.90;;;;;;4985289;28;20045;-73
2023/03/04 12:02:14;;;;;;;2.00;0.25;;;7.70;99.90;;;;;;4959309;28;20125;-72
2023/03/04 12:05:07;;;;;;;3.47;0.25;;;7.70;99.90;;;;;;4993551;28;20482;-72
2023/03/04 12:07:52;;;;;;;0.70;0.25;;;7.80;99.90;;;;;;4992816;28;20058;-75
2023/03/04 12:10:38;;;;;;;0.73;0.20;;;7.90;99.90;;;;;;5003634;28;20041;-73
2023/03/04 12:13:35;;;;;;;1.38;0.38;;;8.20;99.90;;;;;;4982832;28;20410;-73
2023/03/04 12:16:09;;;;;;;0.95;0.20;;;8.30;99.90;;;;;;4988472;28;20058;-74
2023/03/04 12:18:43;;;;;;;2.45;0.40;;;8.30;99.90;;;;;;4983381;28;20046;-73
2023/03/04 12:21:44;;;;;;;7.68;0.57;;;8.30;99.90;;;;;;4983008;28;20057;-74
2023/03/04 12:24:28;;;;;;;3.50;0.95;;;8.10;99.90;;;;;;4987907;28;20275;-74
2023/03/04 12:27:09;;;;;;;5.78;1.17;;;7.90;99.90;;;;;;4984667;28;20126;-74
2023/03/04 12:29:52;;;;;;;5.65;0.73;;;7.80;99.90;;;;;;4982766;28;20048;-74
2023/03/04 12:32:50;;;;;;;5.18;2.50;;;7.70;99.90;;;;;;4985675;28;20045;-74
2023/03/04 12:35:36;;;;;;;4.35;1.20;;;7.70;99.90;;;;;;4951974;28;20500;-75
2023/03/04 12:38:51;;;;;;;3.88;1.35;;;7.60;99.90;;;;;;4966679;28;20066;-74
2023/03/04 12:41:40;;;;;;;6.07;1.13;;;7.70;99.90;;;;;;4970769;28;20046;-73
2023/03/04 12:44:20;;;;;;;3.30;0.43;;;7.70;99.90;;;;;;4974953;28;20140;-74
2023/03/04 12:47:16;;;;;;;7.43;1.30;;;7.60;99.90;;;;;;4967070;28;20365;-73
2023/03/04 12:49:55;;;;;;;5.38;0.93;;;7.50;99.90;;;;;;4963480;28;20050;-72
2023/03/04 12:53:09;;;;;;;5.75;0.85;;;7.50;99.90;;;;;;4965650;28;20039;-75
2023/03/04 12:55:40;;;;;;;13.13;2.10;;;7.40;99.90;;;;;;4946753;28;20105;-73
2023/03/04 12:58:33;;;;;;;9.05;1.17;;;7.40;99.90;;;;;;4966697;28;20041;-73
2023/03/04 13:01:08;;;;;;;12.70;1.58;;;7.40;99.90;;;;;;4965711;28;20446;-73
2023/03/04 13:04:00;;;;;;;8.35;0.70;;;7.60;99.90;;;;;;4962721;28;20428;-73
2023/03/04 13:06:25;;;;;;;6.93;0.60;;;7.60;99.90;;;;;;4968761;28;20507;-75
2023/03/04 13:09:07;;;;;;;14.73;1.45;;;7.70;99.90;;;;;;4968260;28;20034;-73
2023/03/04 13:11:42;;;;;;;9.93;2.17;;;7.80;99.90;;;;;;4963880;28;20066;-73